createdAt,value
2023-05-20T00:01:41.076Z,14.81
2023-05-20T00:04:08.018Z,14.83
2023-05-20T00:06:34.850Z,14.87
2023-05-20T00:09:01.497Z,14.84
2023-05-20T00:11:28.180Z,14.91
2023-05-20T00:13:54.797Z,14.97
2023-05-20T00:16:21.522Z,14.95
2023-05-20T00:18:48.232Z,14.92
2023-05-20T00:21:14.947Z,14.90
2023-05-20T00:23:41.690Z,14.86
2023-05-20T00:26:08.404Z,14.88
2023-05-20T00:28:35.358Z,14.92
2023-05-20T00:31:02.058Z,14.85
2023-05-20T00:33:28.743Z,14.78
2023-05-20T00:35:55.483Z,14.91
2023-05-20T00:38:22.110Z,14.59
2023-05-20T00:40:48.819Z,14.59
2023-05-20T00:43:15.449Z,14.60
2023-05-20T00:45:42.336Z,14.59
2023-05-20T00:48:09.132Z,14.58
2023-05-20T00:50:36.036Z,14.52
2023-05-20T00:53:03.604Z,14.48
2023-05-20T00:55:30.412Z,14.49
2023-05-20T00:57:57.328Z,14.58
2023-05-20T01:00:23.978Z,14.44
2023-05-20T01:02:50.949Z,14.35
2023-05-20T01:05:17.927Z,14.71
2023-05-20T01:07:44.780Z,14.67
2023-05-20T01:10:11.799Z,14.50
2023-05-20T01:12:39.567Z,14.36
2023-05-20T01:15:09.669Z,14.52
2023-05-20T01:17:43.460Z,14.33
2023-05-20T01:20:11.699Z,14.49
2023-05-20T01:22:41.006Z,14.16
2023-05-20T01:25:08.014Z,14.14
2023-05-20T01:27:37.673Z,14.49
2023-05-20T01:30:04.910Z,14.43
2023-05-20T01:32:52.969Z,14.30
2023-05-20T01:35:21.259Z,14.17
2023-05-20T01:37:48.759Z,14.13
2023-05-20T01:40:16.651Z,14.09
2023-05-20T01:42:46.721Z,14.17
2023-05-20T01:45:13.385Z,14.10
2023-05-20T01:47:40.233Z,14.28
2023-05-20T01:50:07.536Z,14.40
2023-05-20T01:52:34.190Z,14.58
2023-05-20T01:55:00.910Z,14.37
2023-05-20T01:57:27.581Z,14.23
2023-05-20T01:59:54.342Z,14.09
2023-05-20T02:02:21.047Z,14.07
2023-05-20T02:04:50.344Z,13.98
2023-05-20T02:07:18.379Z,13.35
2023-05-20T02:09:45.132Z,13.68
2023-05-20T02:12:11.927Z,13.88
2023-05-20T02:14:38.658Z,13.73
2023-05-20T02:17:05.363Z,13.70
2023-05-20T02:19:32.024Z,13.58
2023-05-20T02:21:58.772Z,13.92
2023-05-20T02:24:27.809Z,13.63
2023-05-20T02:26:54.494Z,13.40
2023-05-20T02:29:21.146Z,13.38
2023-05-20T02:31:48.314Z,13.62
2023-05-20T02:34:17.386Z,13.73
2023-05-20T02:36:44.200Z,13.72
2023-05-20T02:39:10.814Z,13.63
2023-05-20T02:41:37.624Z,13.67
2023-05-20T02:44:04.573Z,13.62
2023-05-20T02:46:31.897Z,13.51
2023-05-20T02:48:58.578Z,13.63
2023-05-20T02:51:25.670Z,13.71
2023-05-20T02:53:54.914Z,13.63
2023-05-20T02:56:21.601Z,13.89
2023-05-20T02:58:48.567Z,13.83
2023-05-20T03:01:15.314Z,13.80
2023-05-20T03:03:42.389Z,13.89
2023-05-20T03:06:09.060Z,13.96
2023-05-20T03:08:35.746Z,13.98
2023-05-20T03:11:04.805Z,13.99
2023-05-20T03:13:32.091Z,14.02
2023-05-20T03:15:58.893Z,13.99
2023-05-20T03:18:25.586Z,13.90
2023-05-20T03:20:52.261Z,13.53
2023-05-20T03:23:18.941Z,13.44
2023-05-20T03:25:45.610Z,13.55
2023-05-20T03:28:12.312Z,13.66
2023-05-20T03:30:39.357Z,13.53
2023-05-20T03:33:06.102Z,13.36
2023-05-20T03:35:33.090Z,13.28
2023-05-20T03:38:02.949Z,13.34
2023-05-20T03:40:29.679Z,13.32
2023-05-20T03:42:56.405Z,13.23
2023-05-20T03:45:23.055Z,13.45
2023-05-20T03:47:49.867Z,13.67
2023-05-20T03:50:16.576Z,13.76
2023-05-20T03:52:43.319Z,13.71
2023-05-20T03:55:10.246Z,13.73
2023-05-20T03:57:36.985Z,13.83
2023-05-20T04:00:08.052Z,13.79
2023-05-20T04:02:34.913Z,13.48
2023-05-20T04:05:01.730Z,13.40
2023-05-20T04:07:28.410Z,13.49
2023-05-20T04:09:55.050Z,13.16
2023-05-20T04:12:23.259Z,13.36
2023-05-20T04:14:49.930Z,13.71
2023-05-20T04:17:16.599Z,13.60
2023-05-20T04:19:43.438Z,13.58
2023-05-20T04:22:10.081Z,13.60
2023-05-20T04:24:36.739Z,13.54
2023-05-20T04:27:03.663Z,13.73
2023-05-20T04:29:30.261Z,13.74
2023-05-20T04:31:56.908Z,13.76
2023-05-20T04:34:23.576Z,13.68
2023-05-20T04:36:50.277Z,13.60
2023-05-20T04:39:16.909Z,13.43
2023-05-20T04:41:43.643Z,13.78
2023-05-20T04:44:10.562Z,13.95
2023-05-20T04:46:37.275Z,13.95
2023-05-20T04:49:04.003Z,13.76
2023-05-20T04:51:30.654Z,14.05
2023-05-20T04:53:57.396Z,14.13
2023-05-20T04:56:24.231Z,14.10
2023-05-20T04:58:50.863Z,14.01
2023-05-20T05:01:17.550Z,14.16
2023-05-20T05:03:44.303Z,14.28
2023-05-20T05:06:10.922Z,14.30
2023-05-20T05:08:37.660Z,14.39
2023-05-20T05:11:05.993Z,14.74
2023-05-20T05:13:32.718Z,14.70
2023-05-20T05:16:00.436Z,14.81
2023-05-20T05:18:27.427Z,15.11
2023-05-20T05:21:04.212Z,14.83
2023-05-20T05:23:31.571Z,14.80
2023-05-20T05:26:01.348Z,15.07
2023-05-20T05:28:27.995Z,14.98
2023-05-20T05:30:55.925Z,15.15
2023-05-20T05:33:22.964Z,15.23
2023-05-20T05:35:50.792Z,15.20
2023-05-20T05:38:17.476Z,15.26
2023-05-20T05:40:44.241Z,15.41
2023-05-20T05:43:10.921Z,15.57
2023-05-20T05:45:37.741Z,15.74
2023-05-20T05:48:04.481Z,15.81
2023-05-20T05:50:31.183Z,15.69
2023-05-20T05:52:57.826Z,15.72
2023-05-20T05:55:24.499Z,15.87
2023-05-20T05:57:51.298Z,16.01
2023-05-20T06:00:18.184Z,15.91
2023-05-20T06:02:45.822Z,16.01
2023-05-20T06:05:12.658Z,16.13
2023-05-20T06:07:41.460Z,16.14
2023-05-20T06:10:08.568Z,16.30
2023-05-20T06:12:35.162Z,16.14
2023-05-20T06:15:01.930Z,16.33
2023-05-20T06:17:28.692Z,16.52
2023-05-20T06:19:55.596Z,16.51
2023-05-20T06:22:24.306Z,16.83
2023-05-20T06:24:50.945Z,16.63
2023-05-20T06:27:17.658Z,16.79
2023-05-20T06:29:44.403Z,16.76
2023-05-20T06:32:11.125Z,16.79
2023-05-20T06:34:38.330Z,16.85
2023-05-20T06:37:05.194Z,16.95
2023-05-20T06:39:31.848Z,17.01
2023-05-20T06:41:58.641Z,16.89
2023-05-20T06:44:25.287Z,16.94
2023-05-20T06:46:52.013Z,17.36
2023-05-20T06:49:18.702Z,17.50
2023-05-20T06:51:45.328Z,17.36
2023-05-20T06:54:11.992Z,17.54
2023-05-20T06:56:38.628Z,17.71
2023-05-20T06:59:05.280Z,17.56
2023-05-20T07:01:31.951Z,17.64
2023-05-20T07:03:58.578Z,17.90
2023-05-20T07:06:25.235Z,17.76
2023-05-20T07:08:51.962Z,17.82
2023-05-20T07:11:18.636Z,17.93
2023-05-20T07:13:45.342Z,17.90
2023-05-20T07:16:12.027Z,18.12
2023-05-20T07:18:38.775Z,18.40
2023-05-20T07:21:05.506Z,18.43
2023-05-20T07:23:32.156Z,18.49
2023-05-20T07:25:58.858Z,18.49
2023-05-20T07:28:25.561Z,18.43
2023-05-20T07:30:53.655Z,18.31
2023-05-20T07:33:21.578Z,18.60
2023-05-20T07:35:49.018Z,18.58
2023-05-20T07:38:15.705Z,18.84
2023-05-20T07:40:42.361Z,19.02
2023-05-20T07:43:09.545Z,18.96
2023-05-20T07:45:36.780Z,19.01
2023-05-20T07:48:04.705Z,18.97
2023-05-20T07:50:31.390Z,18.94
2023-05-20T07:52:58.123Z,19.30
2023-05-20T07:55:24.852Z,19.35
2023-05-20T07:57:51.646Z,19.20
2023-05-20T08:00:18.527Z,19.51
2023-05-20T08:02:45.405Z,19.56
2023-05-20T08:05:12.197Z,19.52
2023-05-20T08:07:38.910Z,19.57
2023-05-20T08:10:06.259Z,19.90
2023-05-20T08:12:32.894Z,19.96
2023-05-20T08:14:59.531Z,19.97
2023-05-20T08:17:26.293Z,20.25
2023-05-20T08:19:53.086Z,20.09
2023-05-20T08:22:19.778Z,20.27
2023-05-20T08:24:46.458Z,20.43
2023-05-20T08:27:13.100Z,20.24
2023-05-20T08:29:39.911Z,19.98
2023-05-20T08:32:06.866Z,20.25
2023-05-20T08:34:33.503Z,20.73
2023-05-20T08:37:00.178Z,20.86
2023-05-20T08:39:26.997Z,20.73
2023-05-20T08:41:53.849Z,20.96
2023-05-20T08:44:22.026Z,20.74
2023-05-20T08:46:48.885Z,20.87
2023-05-20T08:49:15.718Z,21.08
2023-05-20T08:51:42.401Z,21.23
2023-05-20T08:54:09.883Z,21.17
2023-05-20T08:56:36.878Z,21.05
2023-05-20T08:59:04.284Z,21.28
2023-05-20T09:01:31.178Z,21.59
2023-05-20T09:03:57.865Z,21.63
2023-05-20T09:06:24.612Z,21.66
2023-05-20T09:08:51.459Z,21.93
2023-05-20T09:11:19.218Z,21.84
2023-05-20T09:13:45.890Z,21.95
2023-05-20T09:16:12.830Z,21.78
2023-05-20T09:18:40.456Z,21.70
2023-05-20T09:21:07.232Z,21.89
2023-05-20T09:23:37.335Z,21.96
2023-05-20T09:26:04.190Z,22.17
2023-05-20T09:28:30.835Z,22.36
2023-05-20T09:31:00.898Z,22.32
2023-05-20T09:33:29.464Z,22.38
2023-05-20T09:36:03.885Z,22.43
2023-05-20T09:38:34.955Z,22.41
2023-05-20T09:41:07.176Z,22.47
2023-05-20T09:43:35.066Z,22.53
2023-05-20T09:46:05.815Z,22.36
2023-05-20T09:48:34.364Z,22.47
2023-05-20T09:51:01.668Z,22.78
2023-05-20T09:53:28.888Z,23.09
2023-05-20T09:55:56.200Z,23.15
2023-05-20T09:58:23.429Z,23.12
2023-05-20T10:00:50.176Z,23.08
2023-05-20T10:03:18.658Z,23.48
2023-05-20T10:06:16.223Z,23.39
2023-05-20T10:08:42.961Z,23.39
2023-05-20T10:11:37.536Z,23.48
2023-05-20T10:14:30.983Z,23.59
2023-05-20T10:17:09.728Z,23.63
2023-05-20T10:19:36.367Z,23.81
2023-05-20T10:22:04.264Z,23.57
2023-05-20T10:24:33.135Z,23.57
2023-05-20T10:27:02.543Z,23.81
2023-05-20T10:29:29.679Z,24.08
2023-05-20T10:31:56.478Z,24.15
2023-05-20T10:34:23.632Z,24.04
2023-05-20T10:36:56.038Z,24.07
2023-05-20T10:39:30.371Z,23.86
2023-05-20T10:42:11.194Z,24.11
2023-05-20T10:44:44.846Z,24.26
2023-05-20T10:49:46.582Z,24.44
2023-05-20T10:52:14.007Z,24.38
2023-05-20T10:54:45.074Z,24.40
2023-05-20T10:57:11.780Z,24.39
2023-05-20T10:59:38.823Z,24.63
2023-05-20T11:02:05.725Z,24.72
2023-05-20T11:04:32.784Z,24.83
2023-05-20T11:06:59.517Z,24.81
2023-05-20T11:09:26.152Z,24.74
2023-05-20T11:11:54.444Z,24.72
2023-05-20T11:14:22.218Z,24.54
2023-05-20T11:16:53.440Z,24.79
2023-05-20T11:19:21.640Z,25.05
2023-05-20T11:21:48.951Z,25.34
2023-05-20T11:24:23.552Z,25.34
2023-05-20T11:26:50.737Z,25.14
2023-05-20T11:29:18.138Z,25.29
2023-05-20T11:31:44.952Z,25.40
2023-05-20T11:34:11.600Z,25.56
2023-05-20T11:36:44.322Z,25.69
2023-05-20T11:39:12.253Z,25.78
2023-05-20T11:41:39.253Z,25.73
2023-05-20T11:44:10.378Z,25.47
2023-05-20T11:46:42.500Z,25.53
2023-05-20T11:49:09.515Z,25.50
2023-05-20T11:51:38.329Z,25.70
2023-05-20T11:54:06.921Z,25.70
2023-05-20T11:56:34.971Z,25.94
2023-05-20T11:59:01.821Z,25.97
2023-05-20T12:01:33.201Z,25.66
2023-05-20T12:04:00.335Z,25.59
2023-05-20T12:06:27.855Z,25.78
2023-05-20T12:08:56.892Z,25.91
2023-05-20T12:11:23.562Z,25.74
2023-05-20T12:13:50.217Z,25.80
2023-05-20T12:16:16.895Z,25.85
2023-05-20T12:18:43.706Z,25.80
2023-05-20T12:21:10.418Z,25.81
2023-05-20T12:23:37.025Z,25.86
2023-05-20T12:26:03.725Z,25.76
2023-05-20T12:28:30.336Z,25.84
2023-05-20T12:30:57.220Z,25.92
2023-05-20T12:33:23.846Z,25.87
2023-05-20T12:35:50.488Z,25.98
2023-05-20T12:38:17.240Z,26.21
2023-05-20T12:40:43.880Z,26.22
2023-05-20T12:43:10.587Z,26.31
2023-05-20T12:45:37.279Z,26.33
2023-05-20T12:48:04.659Z,26.27
2023-05-20T12:50:31.330Z,26.36
2023-05-20T12:52:57.971Z,26.61
2023-05-20T12:55:24.853Z,26.40
2023-05-20T12:57:54.726Z,26.36
2023-05-20T13:00:21.356Z,26.59
2023-05-20T13:02:48.227Z,26.63
2023-05-20T13:05:15.030Z,26.64
2023-05-20T13:07:42.861Z,26.47
2023-05-20T13:10:09.848Z,26.41
2023-05-20T13:12:36.746Z,26.55
2023-05-20T13:15:04.599Z,26.64
2023-05-20T13:17:31.334Z,26.56
2023-05-20T13:19:57.959Z,26.68
2023-05-20T13:22:24.625Z,26.59
2023-05-20T13:24:51.276Z,26.44
2023-05-20T13:27:20.730Z,26.25
2023-05-20T13:29:47.447Z,26.11
2023-05-20T13:32:14.208Z,26.41
2023-05-20T13:34:41.052Z,26.62
2023-05-20T13:37:07.784Z,26.84
2023-05-20T13:39:34.451Z,26.60
2023-05-20T13:42:01.160Z,26.44
2023-05-20T13:44:27.828Z,26.02
2023-05-20T13:46:54.622Z,25.95
2023-05-20T13:49:21.948Z,26.33
2023-05-20T13:51:48.742Z,26.43
2023-05-20T13:54:15.792Z,26.56
2023-05-20T13:56:42.565Z,26.50
2023-05-20T13:59:09.312Z,26.44
2023-05-20T14:01:36.386Z,26.51
2023-05-20T14:04:03.831Z,26.76
2023-05-20T14:06:30.577Z,26.88
2023-05-20T14:08:57.623Z,26.75
2023-05-20T14:11:24.341Z,26.71
2023-05-20T14:13:51.093Z,26.63
2023-05-20T14:16:17.792Z,26.64
2023-05-20T14:18:44.576Z,26.63
2023-05-20T14:21:11.967Z,26.58
2023-05-20T14:23:39.981Z,26.56
2023-05-20T14:26:06.739Z,26.48
2023-05-20T14:28:33.371Z,26.64
2023-05-20T14:31:00.067Z,26.66
2023-05-20T14:33:26.778Z,26.68
2023-05-20T14:35:53.543Z,26.95
2023-05-20T14:38:20.539Z,26.64
2023-05-20T14:40:47.164Z,26.64
2023-05-20T14:43:13.813Z,26.63
2023-05-20T14:45:40.613Z,26.47
2023-05-20T14:48:07.351Z,26.62
2023-05-20T14:50:37.271Z,26.68
2023-05-20T14:53:04.182Z,26.57
2023-05-20T14:55:30.829Z,26.57
2023-05-20T14:57:57.860Z,26.72
2023-05-20T15:00:24.509Z,26.86
2023-05-20T15:02:51.291Z,26.97
2023-05-20T15:05:18.089Z,26.85
2023-05-20T15:07:46.802Z,26.79
2023-05-20T15:10:13.847Z,26.43
2023-05-20T15:12:40.520Z,26.46
2023-05-20T15:15:07.541Z,26.60
2023-05-20T15:17:34.272Z,26.57
2023-05-20T15:20:01.394Z,26.78
2023-05-20T15:22:28.316Z,26.64
2023-05-20T15:24:54.966Z,26.52
2023-05-20T15:27:21.737Z,26.57
2023-05-20T15:29:48.359Z,26.76
2023-05-20T15:32:15.632Z,26.72
2023-05-20T15:34:44.841Z,26.51
2023-05-20T15:37:11.685Z,26.68
2023-05-20T15:39:38.617Z,26.63
2023-05-20T15:42:05.445Z,26.77
2023-05-20T15:44:32.530Z,26.77
2023-05-20T15:46:59.239Z,26.61
2023-05-20T15:49:26.017Z,26.81
2023-05-20T15:52:02.987Z,26.90
2023-05-20T15:54:30.940Z,26.96
2023-05-20T15:56:57.700Z,26.73
2023-05-20T15:59:24.538Z,26.62
2023-05-20T16:01:51.243Z,26.75
2023-05-20T16:04:19.618Z,26.74
2023-05-20T16:06:47.166Z,26.49
2023-05-20T16:09:13.813Z,26.43
2023-05-20T16:11:40.471Z,26.47
2023-05-20T16:14:07.200Z,26.35
2023-05-20T16:16:35.808Z,26.14
2023-05-20T16:19:02.979Z,25.90
2023-05-20T16:21:29.697Z,25.84
2023-05-20T16:23:56.390Z,25.94
2023-05-20T16:26:23.177Z,26.05
2023-05-20T16:28:49.924Z,26.03
2023-05-20T16:31:16.640Z,26.22
2023-05-20T16:33:43.299Z,26.35
2023-05-20T16:36:09.970Z,26.25
2023-05-20T16:38:36.653Z,26.05
2023-05-20T16:41:03.287Z,26.12
2023-05-20T16:43:29.976Z,26.25
2023-05-20T16:45:56.646Z,26.32
2023-05-20T16:48:23.266Z,25.86
2023-05-20T16:50:49.985Z,25.92
2023-05-20T16:53:16.818Z,25.74
2023-05-20T16:55:43.537Z,25.37
2023-05-20T16:58:10.234Z,25.32
2023-05-20T17:00:36.989Z,25.49
2023-05-20T17:03:04.146Z,25.44
2023-05-20T17:05:30.841Z,25.24
2023-05-20T17:07:57.448Z,25.16
2023-05-20T17:10:24.114Z,24.76
2023-05-20T17:12:50.914Z,24.57
2023-05-20T17:15:17.721Z,24.54
2023-05-20T17:17:44.485Z,24.27
2023-05-20T17:20:11.509Z,24.24
2023-05-20T17:22:38.160Z,24.19
2023-05-20T17:25:05.687Z,24.18
2023-05-20T17:27:32.343Z,24.09
2023-05-20T17:29:59.029Z,24.08
2023-05-20T17:32:25.743Z,23.78
2023-05-20T17:34:54.834Z,23.75
2023-05-20T17:37:21.476Z,23.84
2023-05-20T17:39:48.115Z,23.74
2023-05-20T17:42:14.879Z,23.70
2023-05-20T17:44:41.543Z,23.11
2023-05-20T17:47:08.301Z,23.10
2023-05-20T17:49:34.979Z,23.15
2023-05-20T17:52:01.616Z,23.28
2023-05-20T17:54:28.303Z,22.89
2023-05-20T17:56:54.995Z,22.74
2023-05-20T17:59:21.595Z,22.90
2023-05-20T18:01:48.621Z,22.61
2023-05-20T18:04:15.294Z,22.66
2023-05-20T18:06:42.417Z,22.56
2023-05-20T18:09:09.246Z,22.52
2023-05-20T18:11:38.051Z,22.33
2023-05-20T18:14:04.714Z,22.38
2023-05-20T18:16:31.688Z,22.16
2023-05-20T18:18:58.711Z,22.11
2023-05-20T18:21:25.595Z,21.95
2023-05-20T18:23:52.228Z,22.01
2023-05-20T18:26:19.054Z,21.85
2023-05-20T18:28:45.766Z,21.74
2023-05-20T18:31:12.657Z,21.68
2023-05-20T18:33:39.421Z,21.74
2023-05-20T18:36:06.298Z,21.54
2023-05-20T18:38:33.194Z,21.50
2023-05-20T18:41:00.034Z,21.46
2023-05-20T18:43:29.276Z,21.39
2023-05-20T18:45:56.183Z,21.42
2023-05-20T18:48:26.743Z,21.14
2023-05-20T18:50:54.786Z,21.09
2023-05-20T18:53:21.658Z,21.07
2023-05-20T18:55:48.451Z,20.88
2023-05-20T18:58:15.365Z,20.97
2023-05-20T19:00:42.327Z,20.77
2023-05-20T19:03:09.124Z,20.61
2023-05-20T19:05:36.239Z,20.76
2023-05-20T19:08:03.392Z,20.67
2023-05-20T19:10:30.014Z,20.59
2023-05-20T19:12:56.842Z,20.60
2023-05-20T19:15:23.572Z,20.67
2023-05-20T19:17:51.688Z,20.60
2023-05-20T19:20:18.411Z,20.73
2023-05-20T19:22:45.034Z,20.54
2023-05-20T19:25:11.744Z,20.42
2023-05-20T19:27:38.433Z,20.29
2023-05-20T19:30:06.190Z,20.20
2023-05-20T19:32:33.942Z,20.13
2023-05-20T19:35:00.705Z,20.08
2023-05-20T19:37:27.457Z,20.32
2023-05-20T19:39:54.178Z,19.92
2023-05-20T19:42:21.094Z,19.82
2023-05-20T19:44:48.851Z,19.86
2023-05-20T19:47:15.805Z,19.85
2023-05-20T19:49:42.455Z,20.04
2023-05-20T19:52:09.113Z,19.86
2023-05-20T19:54:35.730Z,19.57
2023-05-20T19:57:02.379Z,19.54
2023-05-20T19:59:28.999Z,19.35
2023-05-20T20:01:55.703Z,19.37
2023-05-20T20:04:22.402Z,19.28
2023-05-20T20:06:49.411Z,19.37
2023-05-20T20:09:16.040Z,19.25
2023-05-20T20:11:42.746Z,19.12
2023-05-20T20:14:09.524Z,19.35
2023-05-20T20:16:36.203Z,19.32
2023-05-20T20:19:02.987Z,19.26
2023-05-20T20:21:29.715Z,19.26
2023-05-20T20:23:56.362Z,19.44
2023-05-20T20:26:23.022Z,19.23
2023-05-20T20:28:49.662Z,19.10
2023-05-20T20:31:16.305Z,19.06
2023-05-20T20:33:43.579Z,19.22
2023-05-20T20:36:10.222Z,19.13
2023-05-20T20:38:36.908Z,18.91
2023-05-20T20:41:03.546Z,18.85
2023-05-20T20:43:30.329Z,18.90
2023-05-20T20:45:57.011Z,18.53
2023-05-20T20:48:23.845Z,18.67
2023-05-20T20:50:50.505Z,18.89
2023-05-20T20:53:17.204Z,18.67
2023-05-20T20:55:43.996Z,18.69
2023-05-20T20:58:10.675Z,18.57
2023-05-20T21:00:37.771Z,18.41
2023-05-20T21:03:04.591Z,18.52
2023-05-20T21:05:31.263Z,18.47
2023-05-20T21:07:57.926Z,18.42
2023-05-20T21:10:25.486Z,18.27
2023-05-20T21:12:52.302Z,18.36
2023-05-20T21:15:18.939Z,18.38
2023-05-20T21:17:45.642Z,18.52
2023-05-20T21:20:12.579Z,18.33
2023-05-20T21:22:39.218Z,18.20
2023-05-20T21:25:06.561Z,18.11
2023-05-20T21:27:33.289Z,18.12
2023-05-20T21:30:00.050Z,18.15
2023-05-20T21:32:26.747Z,18.47
2023-05-20T21:34:53.503Z,18.25
2023-05-20T21:37:20.156Z,17.99
2023-05-20T21:39:46.903Z,18.08
2023-05-20T21:42:13.619Z,18.16
2023-05-20T21:44:42.795Z,17.93
2023-05-20T21:47:09.652Z,18.00
2023-05-20T21:49:36.335Z,17.83
2023-05-20T21:52:02.936Z,17.79
2023-05-20T21:54:29.598Z,17.82
2023-05-20T21:56:56.242Z,18.02
2023-05-20T21:59:22.905Z,17.80
2023-05-20T22:01:49.681Z,17.90
2023-05-20T22:04:16.457Z,18.05
2023-05-20T22:06:43.118Z,18.02
2023-05-20T22:09:09.940Z,17.82
2023-05-20T22:11:36.609Z,17.76
2023-05-20T22:14:03.613Z,17.68
2023-05-20T22:16:30.300Z,17.60
2023-05-20T22:18:56.971Z,17.47
2023-05-20T22:21:23.723Z,17.49
2023-05-20T22:23:50.404Z,17.79
2023-05-20T22:26:17.042Z,17.53
2023-05-20T22:28:43.801Z,17.52
2023-05-20T22:31:10.468Z,17.63
2023-05-20T22:33:37.185Z,17.51
2023-05-20T22:36:03.986Z,17.29
2023-05-20T22:38:30.636Z,17.36
2023-05-20T22:40:57.261Z,17.28
2023-05-20T22:43:23.877Z,17.38
2023-05-20T22:45:50.710Z,17.48
2023-05-20T22:48:17.468Z,17.49
2023-05-20T22:50:44.154Z,17.38
2023-05-20T22:53:10.775Z,17.22
2023-05-20T22:55:37.945Z,17.19
2023-05-20T22:58:04.788Z,17.16
2023-05-20T23:00:31.430Z,17.10
2023-05-20T23:02:58.144Z,17.25
2023-05-20T23:05:24.789Z,17.48
2023-05-20T23:07:51.945Z,17.24
2023-05-20T23:10:19.483Z,17.12
2023-05-20T23:12:46.207Z,17.20
2023-05-20T23:15:12.890Z,17.03
2023-05-20T23:17:39.738Z,16.85
2023-05-20T23:20:07.530Z,17.06
2023-05-20T23:22:34.178Z,16.94
2023-05-20T23:25:03.833Z,17.08
2023-05-20T23:27:30.484Z,16.98
2023-05-20T23:29:57.299Z,16.73
2023-05-20T23:32:24.643Z,16.53
2023-05-20T23:34:51.920Z,16.53
2023-05-20T23:37:19.166Z,16.54
2023-05-20T23:39:46.505Z,16.72
2023-05-20T23:42:13.259Z,16.73
2023-05-20T23:44:40.006Z,16.71
2023-05-20T23:47:06.659Z,16.64
2023-05-20T23:49:34.111Z,16.59
2023-05-20T23:52:00.775Z,16.63
2023-05-20T23:54:27.484Z,16.51
2023-05-20T23:56:54.177Z,16.34
2023-05-20T23:59:20.917Z,16.66
